Time;durP1;ratioP1;P1;durP2;ratioP2;P2;SDS_P1;SDS_P2;PMS_P1;PMS_P2;Temp;Humidity;BMP_temperature;BMP_pressure;BME280_temperature;BME280_humidity;BME280_pressure;Samples;Min_cycle;Max_cycle;Signal;HPM_P1;HPM_P2
2022/12/26 00:02:07;;;;;;;0.10;0.10;;;;;;;;;;5090295;28;20616;-70
2022/12/26 00:04:34;;;;;;;0.10;0.10;;;;;;;;;;5086493;28;20633;-70
2022/12/26 00:07:01;;;;;;;0.10;0.10;;;;;;;;;;5092092;28;20674;-69
2022/12/26 00:09:30;;;;;;;0.10;0.10;;;;;;;;;;5090083;28;20758;-69
2022/12/26 00:11:57;;;;;;;0.00;0.00;;;;;;;;;;5089714;28;20981;-69
2022/12/26 00:14:24;;;;;;;0.10;0.10;;;;;;;;;;5088718;28;20640;-69
2022/12/26 00:16:51;;;;;;;0.10;0.10;;;;;;;;;;5088909;28;20675;-70
2022/12/26 00:19:18;;;;;;;0.10;0.10;;;;;;;;;;5094975;28;20707;-70
2022/12/26 00:21:46;;;;;;;0.00;0.00;;;;;;;;;;5093482;28;20701;-69
2022/12/26 00:24:13;;;;;;;0.10;0.10;;;;;;;;;;5079247;28;20707;-69
2022/12/26 00:26:42;;;;;;;0.10;0.10;;;;;;;;;;5094869;28;20667;-69
2022/12/26 00:29:09;;;;;;;0.00;0.00;;;;;;;;;;5092891;28;20658;-68
2022/12/26 00:31:36;;;;;;;0.10;0.10;;;;;;;;;;5091292;28;20713;-69
2022/12/26 00:34:04;;;;;;;0.00;0.00;;;;;;;;;;5094168;28;20639;-68
2022/12/26 00:36:32;;;;;;;0.00;0.00;;;;;;;;;;5095385;28;20756;-69
2022/12/26 00:38:59;;;;;;;0.03;0.03;;;;;;;;;;5095206;28;20635;-69
2022/12/26 00:41:27;;;;;;;0.10;0.10;;;;;;;;;;5091999;28;20619;-69
2022/12/26 00:43:56;;;;;;;0.03;0.03;;;;;;;;;;5091028;28;20628;-69
2022/12/26 00:46:25;;;;;;;0.00;0.00;;;;;;;;;;5091741;28;20658;-69
2022/12/26 00:48:52;;;;;;;0.10;0.10;;;;;;;;;;5090394;28;20222;-69
2022/12/26 00:51:19;;;;;;;0.10;0.10;;;;;;;;;;5092375;28;20635;-68
2022/12/26 00:53:47;;;;;;;0.00;0.00;;;;;;;;;;5093709;28;20643;-68
2022/12/26 00:56:14;;;;;;;0.00;0.00;;;;;;;;;;5091154;28;20756;-68
2022/12/26 00:58:41;;;;;;;0.10;0.10;;;;;;;;;;5094041;28;20604;-69
2022/12/26 01:01:13;;;;;;;0.00;0.00;;;;;;;;;;5094280;28;20610;-69
2022/12/26 01:03:40;;;;;;;0.00;0.00;;;;;;;;;;5092225;28;20701;-69
2022/12/26 01:06:07;;;;;;;0.00;0.00;;;;;;;;;;5089908;28;20734;-69
2022/12/26 01:08:35;;;;;;;0.00;0.00;;;;;;;;;;5092328;28;20653;-69
2022/12/26 01:11:06;;;;;;;0.00;0.00;;;;;;;;;;5090818;28;20628;-69
2022/12/26 01:13:34;;;;;;;0.00;0.00;;;;;;;;;;5097456;27;21499;-69
2022/12/26 01:16:01;;;;;;;0.00;0.00;;;;;;;;;;5096509;27;20230;-69
2022/12/26 01:18:30;;;;;;;0.00;0.00;;;;;;;;;;5083012;28;20630;-69
2022/12/26 01:21:01;;;;;;;0.00;0.00;;;;;;;;;;5091615;28;20699;-69
2022/12/26 01:23:29;;;;;;;0.10;0.10;;;;;;;;;;5094682;28;20646;-69
2022/12/26 01:25:56;;;;;;;0.10;0.10;;;;;;;;;;5093530;28;20643;-68
2022/12/26 01:28:23;;;;;;;0.00;0.00;;;;;;;;;;5086299;28;20652;-69
2022/12/26 01:30:51;;;;;;;0.10;0.10;;;;;;;;;;5090062;28;20623;-69
2022/12/26 01:33:18;;;;;;;0.10;0.10;;;;;;;;;;5095305;28;20647;-69
2022/12/26 01:35:53;;;;;;;0.10;0.10;;;;;;;;;;5093883;28;20766;-69
2022/12/26 01:38:21;;;;;;;0.10;0.10;;;;;;;;;;5093258;28;20653;-68
2022/12/26 01:41:15;;;;;;;0.10;0.10;;;;;;;;;;5090214;28;20617;-68
2022/12/26 01:43:48;;;;;;;0.03;0.03;;;;;;;;;;5090722;28;20618;-68
2022/12/26 01:46:16;;;;;;;0.00;0.00;;;;;;;;;;5094292;27;20674;-68
2022/12/26 01:48:43;;;;;;;0.00;0.00;;;;;;;;;;5092638;28;20656;-68
2022/12/26 01:51:12;;;;;;;0.10;0.10;;;;;;;;;;5098751;28;20723;-68
2022/12/26 01:53:41;;;;;;;0.00;0.00;;;;;;;;;;5095031;28;20696;-69
2022/12/26 01:56:10;;;;;;;0.10;0.10;;;;;;;;;;5096255;28;20750;-69
2022/12/26 01:58:39;;;;;;;0.00;0.00;;;;;;;;;;5094352;28;20754;-69
2022/12/26 02:01:08;;;;;;;0.00;0.00;;;;;;;;;;5084850;28;20724;-69
2022/12/26 02:06:22;;;;;;;0.10;0.10;;;;;;;;;;5095521;28;20660;-68
2022/12/26 02:08:49;;;;;;;0.00;0.00;;;;;;;;;;5095296;28;20622;-68
2022/12/26 02:11:18;;;;;;;0.00;0.00;;;;;;;;;;5089064;28;20697;-69
2022/12/26 02:13:45;;;;;;;0.10;0.10;;;;;;;;;;5091378;28;20707;-69
2022/12/26 02:16:17;;;;;;;0.10;0.10;;;;;;;;;;5094800;28;20722;-68
2022/12/26 02:18:44;;;;;;;0.10;0.10;;;;;;;;;;5095865;28;20597;-69
2022/12/26 02:21:19;;;;;;;0.03;0.03;;;;;;;;;;5092107;28;20631;-69
2022/12/26 02:24:01;;;;;;;0.00;0.00;;;;;;;;;;5088922;28;20611;-69
2022/12/26 02:26:47;;;;;;;0.00;0.00;;;;;;;;;;5076177;28;20661;-69
2022/12/26 02:29:23;;;;;;;0.10;0.10;;;;;;;;;;5089058;28;20662;-68
2022/12/26 02:31:57;;;;;;;0.10;0.10;;;;;;;;;;5092974;28;20662;-69
2022/12/26 02:34:28;;;;;;;0.10;0.10;;;;;;;;;;5091217;28;20614;-69
2022/12/26 02:37:05;;;;;;;0.00;0.00;;;;;;;;;;5087943;28;20807;-69
2022/12/26 02:39:38;;;;;;;0.00;0.00;;;;;;;;;;5093293;28;20686;-69
2022/12/26 02:42:09;;;;;;;0.03;0.03;;;;;;;;;;5088795;28;21053;-69
2022/12/26 02:47:31;;;;;;;0.10;0.10;;;;;;;;;;5090680;28;20628;-68
2022/12/26 03:15:19;;;;;;;0.00;0.00;;;;;;;;;;5080250;28;20639;-69
2022/12/26 03:17:47;;;;;;;0.10;0.10;;;;;;;;;;5090752;28;20621;-68
2022/12/26 03:20:17;;;;;;;0.00;0.00;;;;;;;;;;5091848;28;20657;-69
2022/12/26 03:22:45;;;;;;;0.10;0.10;;;;;;;;;;5089439;28;20700;-68
2022/12/26 03:28:00;;;;;;;0.10;0.10;;;;;;;;;;5093933;28;20610;-68
2022/12/26 03:35:55;;;;;;;0.10;0.10;;;;;;;;;;5090498;28;20651;-68
2022/12/26 03:38:24;;;;;;;0.00;0.00;;;;;;;;;;5089858;28;20622;-68
2022/12/26 04:20:17;;;;;;;0.10;0.10;;;;;;;;;;5094515;28;20753;-69
2022/12/26 04:45:03;;;;;;;0.00;0.00;;;;;;;;;;5094480;28;20627;-68
2022/12/26 04:47:31;;;;;;;0.07;0.07;;;;;;;;;;5095708;28;20770;-68
2022/12/26 04:50:13;;;;;;;0.00;0.00;;;;;;;;;;5095487;28;20761;-68
2022/12/26 04:55:31;;;;;;;0.00;0.00;;;;;;;;;;5068143;28;20655;-68
2022/12/26 04:58:00;;;;;;;0.00;0.00;;;;;;;;;;5097380;28;20649;-68
2022/12/26 05:00:28;;;;;;;0.00;0.00;;;;;;;;;;5112726;27;20627;-68
2022/12/26 05:11:15;;;;;;;0.00;0.00;;;;;;;;;;5096366;28;20591;-68
2022/12/26 05:13:45;;;;;;;0.00;0.00;;;;;;;;;;5097642;28;20568;-68
2022/12/26 05:30:03;;;;;;;0.00;0.00;;;;;;;;;;5098524;28;20663;-68
2022/12/26 05:35:15;;;;;;;0.10;0.10;;;;;;;;;;5100281;28;20661;-68
2022/12/26 05:37:42;;;;;;;0.10;0.10;;;;;;;;;;5098939;28;20662;-68
2022/12/26 05:40:10;;;;;;;0.00;0.00;;;;;;;;;;5097352;28;20680;-68
2022/12/26 05:42:37;;;;;;;0.00;0.00;;;;;;;;;;5096273;28;20680;-68
2022/12/26 05:45:07;;;;;;;0.00;0.00;;;;;;;;;;5099993;28;21209;-68
2022/12/26 05:47:35;;;;;;;0.00;0.00;;;;;;;;;;5095185;28;20651;-67
2022/12/26 05:50:02;;;;;;;0.00;0.00;;;;;;;;;;5096737;28;20624;-68
2022/12/26 05:52:29;;;;;;;0.00;0.00;;;;;;;;;;5095393;28;20722;-68
2022/12/26 05:54:56;;;;;;;0.10;0.10;;;;;;;;;;5098208;28;20710;-68
2022/12/26 05:57:23;;;;;;;0.00;0.00;;;;;;;;;;5095078;28;20663;-68
2022/12/26 05:59:51;;;;;;;0.00;0.00;;;;;;;;;;5097262;28;21254;-68
2022/12/26 06:02:19;;;;;;;0.00;0.00;;;;;;;;;;5097057;28;20719;-68
2022/12/26 06:04:46;;;;;;;0.00;0.00;;;;;;;;;;5096028;28;20607;-69
2022/12/26 06:07:13;;;;;;;0.10;0.10;;;;;;;;;;5094519;28;20656;-68
2022/12/26 06:09:41;;;;;;;0.10;0.10;;;;;;;;;;5094410;28;20770;-68
2022/12/26 06:12:08;;;;;;;0.00;0.00;;;;;;;;;;5092538;28;20624;-68
2022/12/26 06:14:35;;;;;;;0.10;0.10;;;;;;;;;;5095880;28;20714;-68
2022/12/26 06:17:02;;;;;;;0.00;0.00;;;;;;;;;;5093344;28;20679;-68
2022/12/26 06:19:30;;;;;;;0.10;0.10;;;;;;;;;;5099554;28;20615;-68
2022/12/26 06:21:58;;;;;;;0.00;0.00;;;;;;;;;;5097694;28;20631;-68
2022/12/26 06:24:25;;;;;;;0.03;0.03;;;;;;;;;;5092154;28;20639;-68
2022/12/26 06:26:54;;;;;;;0.00;0.00;;;;;;;;;;5098449;28;20766;-68
2022/12/26 06:29:21;;;;;;;0.00;0.00;;;;;;;;;;5094738;28;20742;-68
2022/12/26 06:31:48;;;;;;;0.10;0.10;;;;;;;;;;5097266;28;20607;-68
2022/12/26 06:34:17;;;;;;;0.10;0.10;;;;;;;;;;5109191;27;20629;-67
2022/12/26 06:36:45;;;;;;;0.10;0.10;;;;;;;;;;5098403;28;20733;-68
2022/12/26 06:39:12;;;;;;;0.00;0.00;;;;;;;;;;5096739;28;20698;-68
2022/12/26 06:41:39;;;;;;;0.00;0.00;;;;;;;;;;5097253;28;20603;-68
2022/12/26 06:44:06;;;;;;;0.10;0.10;;;;;;;;;;5091908;28;21314;-68
2022/12/26 06:46:33;;;;;;;0.10;0.10;;;;;;;;;;5098610;27;20750;-68
2022/12/26 06:49:01;;;;;;;0.00;0.00;;;;;;;;;;5095751;28;20592;-67
2022/12/26 06:51:28;;;;;;;0.10;0.10;;;;;;;;;;5093302;28;20615;-68
2022/12/26 06:53:56;;;;;;;0.10;0.10;;;;;;;;;;5093853;28;20700;-68
2022/12/26 06:56:24;;;;;;;0.10;0.10;;;;;;;;;;5095789;28;20741;-67
2022/12/26 06:58:53;;;;;;;0.10;0.10;;;;;;;;;;5095800;28;20655;-68
2022/12/26 07:01:21;;;;;;;0.10;0.10;;;;;;;;;;5097847;28;20591;-68
2022/12/26 07:03:48;;;;;;;0.10;0.10;;;;;;;;;;5094428;28;20627;-68
2022/12/26 07:06:20;;;;;;;0.00;0.00;;;;;;;;;;5093855;28;20731;-69
2022/12/26 07:08:47;;;;;;;0.00;0.00;;;;;;;;;;5096563;28;20745;-70
2022/12/26 07:11:16;;;;;;;0.10;0.10;;;;;;;;;;5093966;28;20656;-70
2022/12/26 07:13:44;;;;;;;0.03;0.03;;;;;;;;;;5098402;28;20619;-69
2022/12/26 07:16:13;;;;;;;0.10;0.10;;;;;;;;;;5096071;28;20690;-69
2022/12/26 07:18:41;;;;;;;0.10;0.10;;;;;;;;;;5095517;28;20644;-70
2022/12/26 07:21:08;;;;;;;0.00;0.00;;;;;;;;;;5096691;28;20595;-69
2022/12/26 07:23:36;;;;;;;0.10;0.10;;;;;;;;;;5094426;28;20627;-69
2022/12/26 07:26:03;;;;;;;0.00;0.00;;;;;;;;;;5096803;28;20646;-70
2022/12/26 07:28:31;;;;;;;0.00;0.00;;;;;;;;;;5095464;28;20639;-70
2022/12/26 07:30:59;;;;;;;0.10;0.10;;;;;;;;;;5093847;28;20660;-70
2022/12/26 07:33:27;;;;;;;0.00;0.00;;;;;;;;;;5098524;28;20631;-69
2022/12/26 07:35:54;;;;;;;0.00;0.00;;;;;;;;;;5096996;28;20737;-70
2022/12/26 07:38:21;;;;;;;0.00;0.00;;;;;;;;;;5099615;28;20634;-70
2022/12/26 07:40:49;;;;;;;0.10;0.10;;;;;;;;;;5097390;28;20973;-70
2022/12/26 07:43:18;;;;;;;0.00;0.00;;;;;;;;;;5098965;28;20624;-69
2022/12/26 07:45:47;;;;;;;0.10;0.10;;;;;;;;;;5090239;28;20670;-70
2022/12/26 07:48:14;;;;;;;0.00;0.00;;;;;;;;;;5095116;28;20634;-70
2022/12/26 07:50:45;;;;;;;0.10;0.10;;;;;;;;;;5096907;28;20651;-69
2022/12/26 07:53:12;;;;;;;0.10;0.10;;;;;;;;;;5095832;28;20611;-69
2022/12/26 07:55:40;;;;;;;0.00;0.00;;;;;;;;;;5097438;28;20638;-68
2022/12/26 07:58:07;;;;;;;0.10;0.10;;;;;;;;;;5097953;28;20644;-68
2022/12/26 08:00:34;;;;;;;0.00;0.00;;;;;;;;;;5091857;28;20624;-68
2022/12/26 08:03:03;;;;;;;0.10;0.10;;;;;;;;;;5078933;28;20728;-67
2022/12/26 08:05:30;;;;;;;0.00;0.00;;;;;;;;;;5095650;28;20671;-67
2022/12/26 08:07:57;;;;;;;0.00;0.00;;;;;;;;;;5098690;28;20630;-65
2022/12/26 08:10:25;;;;;;;0.10;0.10;;;;;;;;;;5095783;28;20651;-65
2022/12/26 08:12:53;;;;;;;0.10;0.10;;;;;;;;;;5097855;28;20733;-66
2022/12/26 08:15:20;;;;;;;0.10;0.10;;;;;;;;;;5093217;28;20655;-64
2022/12/26 08:17:47;;;;;;;0.00;0.00;;;;;;;;;;5095923;28;20632;-65
2022/12/26 08:20:15;;;;;;;0.00;0.00;;;;;;;;;;5097777;28;20650;-65
2022/12/26 08:22:43;;;;;;;0.00;0.00;;;;;;;;;;5098375;28;20634;-65
2022/12/26 08:25:10;;;;;;;0.07;0.07;;;;;;;;;;5081021;28;20667;-65
2022/12/26 08:27:38;;;;;;;0.00;0.00;;;;;;;;;;5094064;28;20616;-65
2022/12/26 08:30:08;;;;;;;0.10;0.10;;;;;;;;;;5099474;28;20648;-64
2022/12/26 08:32:35;;;;;;;0.10;0.10;;;;;;;;;;5084895;28;20615;-64
2022/12/26 08:35:03;;;;;;;0.10;0.10;;;;;;;;;;5105193;28;20631;-65
2022/12/26 08:37:31;;;;;;;0.00;0.00;;;;;;;;;;5092829;28;20695;-67
2022/12/26 08:39:58;;;;;;;0.10;0.10;;;;;;;;;;5089806;27;20723;-67
2022/12/26 08:46:53;;;;;;;0.07;0.07;;;;;;;;;;7413243;19;20949;-66
2022/12/26 08:49:23;;;;;;;0.00;0.00;;;;;;;;;;7352435;19;264822;-66
2022/12/26 08:51:51;;;;;;;0.00;0.00;;;;;;;;;;7410052;19;20152;-66
2022/12/26 08:54:21;;;;;;;0.00;0.00;;;;;;;;;;7411126;19;20248;-66
2022/12/26 08:56:50;;;;;;;0.10;0.10;;;;;;;;;;7409383;19;20235;-66
2022/12/26 08:59:19;;;;;;;0.00;0.00;;;;;;;;;;7358662;19;20653;-66
2022/12/26 09:01:48;;;;;;;0.00;0.00;;;;;;;;;;7413830;19;20743;-67
2022/12/26 09:04:20;;;;;;;0.00;0.00;;;;;;;;;;7408692;19;20686;-67
2022/12/26 09:06:49;;;;;;;0.00;0.00;;;;;;;;;;7409365;19;20622;-67
2022/12/26 09:09:18;;;;;;;0.00;0.00;;;;;;;;;;7413796;19;20184;-67
2022/12/26 09:11:47;;;;;;;0.10;0.10;;;;;;;;;;7412984;19;20168;-67
2022/12/26 09:14:16;;;;;;;0.00;0.00;;;;;;;;;;7414841;19;20261;-67
2022/12/26 09:16:46;;;;;;;0.00;0.00;;;;;;;;;;7411302;19;20773;-67
2022/12/26 09:19:16;;;;;;;0.00;0.00;;;;;;;;;;7415026;19;20140;-67
2022/12/26 09:22:49;;;;;;;0.03;0.03;;;;;;;;;;7416624;19;20657;-67
2022/12/26 09:24:37;;;;;;;0.00;0.00;;;;;;;;;;7412154;19;20633;-67
2022/12/26 09:27:06;;;;;;;0.00;0.00;;;;;;;;;;7410839;19;20712;-67
2022/12/26 09:29:37;;;;;;;0.00;0.00;;;;;;;;;;7414283;19;20610;-67
2022/12/26 09:32:06;;;;;;;0.00;0.00;;;;;;;;;;7413634;19;20233;-67
2022/12/26 09:34:34;;;;;;;0.00;0.00;;;;;;;;;;7415532;19;20637;-67
2022/12/26 09:37:06;;;;;;;0.00;0.00;;;;;;;;;;7411725;19;20176;-67
2022/12/26 09:39:35;;;;;;;0.10;0.10;;;;;;;;;;7414767;19;20709;-67
2022/12/26 09:42:10;;;;;;;0.00;0.00;;;;;;;;;;7415392;19;21404;-67
2022/12/26 09:44:44;;;;;;;0.00;0.00;;;;;;;;;;7413251;19;20629;-67
2022/12/26 09:47:18;;;;;;;0.00;0.00;;;;;;;;;;7410927;19;20674;-67
2022/12/26 09:49:50;;;;;;;0.00;0.00;;;;;;;;;;7413130;19;20169;-67
2022/12/26 09:52:24;;;;;;;0.00;0.00;;;;;;;;;;7414103;19;20630;-67
2022/12/26 09:54:55;;;;;;;0.10;0.10;;;;;;;;;;7411894;19;20767;-67
2022/12/26 09:57:29;;;;;;;0.10;0.10;;;;;;;;;;7392429;19;20718;-67
2022/12/26 10:00:00;;;;;;;0.00;0.00;;;;;;;;;;7373802;19;20674;-67
2022/12/26 10:02:29;;;;;;;0.00;0.00;;;;;;;;;;7384230;19;20603;-67
2022/12/26 10:04:58;;;;;;;0.00;0.00;;;;;;;;;;7380307;19;20231;-67
2022/12/26 10:07:33;;;;;;;0.10;0.10;;;;;;;;;;7379905;19;21341;-67
2022/12/26 10:10:10;;;;;;;0.00;0.00;;;;;;;;;;7380103;19;20683;-67
2022/12/26 10:12:46;;;;;;;0.00;0.00;;;;;;;;;;7383053;19;20642;-67
2022/12/26 10:15:20;;;;;;;0.00;0.00;;;;;;;;;;7372096;19;20650;-66
2022/12/26 10:17:53;;;;;;;0.00;0.00;;;;;;;;;;7383707;19;20607;-67
2022/12/26 10:20:25;;;;;;;0.03;0.03;;;;;;;;;;7381862;19;20626;-67
2022/12/26 10:23:09;;;;;;;0.00;0.00;;;;;;;;;;7383893;19;20610;-67
2022/12/26 10:25:43;;;;;;;0.10;0.10;;;;;;;;;;7372033;19;20176;-66
2022/12/26 10:28:18;;;;;;;0.00;0.00;;;;;;;;;;7380307;19;20622;-67
2022/12/26 10:30:47;;;;;;;0.10;0.10;;;;;;;;;;7380274;19;20756;-67
2022/12/26 10:33:20;;;;;;;0.03;0.03;;;;;;;;;;7379798;19;20634;-67
2022/12/26 10:35:49;;;;;;;0.00;0.00;;;;;;;;;;7382007;19;20741;-66
2022/12/26 10:38:20;;;;;;;0.10;0.10;;;;;;;;;;7380845;19;20741;-66
2022/12/26 10:40:54;;;;;;;0.10;0.10;;;;;;;;;;7383974;19;20647;-67
2022/12/26 10:43:29;;;;;;;0.00;0.00;;;;;;;;;;7383341;19;20717;-67
2022/12/26 10:46:03;;;;;;;0.00;0.00;;;;;;;;;;7383501;19;20638;-67
2022/12/26 10:48:32;;;;;;;0.07;0.07;;;;;;;;;;7385402;19;20643;-67
2022/12/26 10:51:01;;;;;;;0.10;0.10;;;;;;;;;;7384339;19;20733;-67
2022/12/26 10:53:30;;;;;;;0.00;0.00;;;;;;;;;;7381081;19;20737;-66
2022/12/26 10:56:02;;;;;;;0.00;0.00;;;;;;;;;;7380173;19;20855;-68
2022/12/26 10:58:33;;;;;;;0.03;0.03;;;;;;;;;;7382119;19;20626;-67
2022/12/26 11:01:23;;;;;;;0.10;0.10;;;;;;;;;;7380718;19;20626;-67
2022/12/26 11:03:57;;;;;;;0.00;0.00;;;;;;;;;;7378479;19;20185;-67
2022/12/26 11:06:27;;;;;;;0.00;0.00;;;;;;;;;;7381223;19;20629;-67
2022/12/26 11:08:56;;;;;;;0.00;0.00;;;;;;;;;;7378957;19;20715;-67
2022/12/26 11:11:44;;;;;;;0.00;0.00;;;;;;;;;;7379958;19;20177;-68
2022/12/26 11:14:28;;;;;;;0.10;0.10;;;;;;;;;;7379435;19;20252;-68
2022/12/26 11:16:58;;;;;;;0.10;0.10;;;;;;;;;;7379736;19;20654;-68
2022/12/26 11:19:31;;;;;;;0.00;0.00;;;;;;;;;;7380063;19;20610;-68
2022/12/26 11:22:16;;;;;;;0.10;0.10;;;;;;;;;;7373014;19;20614;-68
2022/12/26 11:24:45;;;;;;;0.00;0.00;;;;;;;;;;7381632;19;20624;-67
2022/12/26 11:27:26;;;;;;;0.00;0.00;;;;;;;;;;7369380;19;20176;-67
2022/12/26 11:30:12;;;;;;;0.10;0.10;;;;;;;;;;7373909;19;20676;-67
2022/12/26 11:32:42;;;;;;;0.00;0.00;;;;;;;;;;7382119;19;20133;-68
2022/12/26 11:35:18;;;;;;;0.10;0.10;;;;;;;;;;7375342;19;20711;-68
2022/12/26 11:37:48;;;;;;;0.07;0.07;;;;;;;;;;7381710;19;20240;-67
2022/12/26 11:40:19;;;;;;;0.00;0.00;;;;;;;;;;7368685;19;20625;-65
2022/12/26 11:42:54;;;;;;;0.00;0.00;;;;;;;;;;7384164;19;20689;-67
2022/12/26 11:45:25;;;;;;;0.00;0.00;;;;;;;;;;7379329;19;20670;-67
2022/12/26 11:47:55;;;;;;;0.00;0.00;;;;;;;;;;7378389;19;20163;-67
2022/12/26 11:50:27;;;;;;;0.00;0.00;;;;;;;;;;7382801;19;20599;-67
2022/12/26 11:53:06;;;;;;;0.10;0.10;;;;;;;;;;7381551;19;20226;-67
2022/12/26 11:55:36;;;;;;;0.00;0.00;;;;;;;;;;7371079;19;20156;-67
2022/12/26 11:58:17;;;;;;;0.00;0.00;;;;;;;;;;7374908;19;20666;-68
2022/12/26 12:00:47;;;;;;;0.00;0.00;;;;;;;;;;7372892;19;20136;-67
2022/12/26 12:03:18;;;;;;;0.10;0.10;;;;;;;;;;7372791;19;20587;-68
2022/12/26 12:05:51;;;;;;;0.07;0.07;;;;;;;;;;7376013;19;20224;-67
2022/12/26 12:08:30;;;;;;;0.07;0.07;;;;;;;;;;7375413;19;20236;-68
2022/12/26 12:11:08;;;;;;;0.10;0.10;;;;;;;;;;7377717;19;20717;-68
2022/12/26 12:13:44;;;;;;;0.00;0.00;;;;;;;;;;7377376;19;20622;-67
2022/12/26 12:16:18;;;;;;;0.10;0.10;;;;;;;;;;7379013;19;21450;-67
2022/12/26 12:18:53;;;;;;;0.00;0.00;;;;;;;;;;7381765;19;20591;-67
2022/12/26 12:21:27;;;;;;;0.10;0.10;;;;;;;;;;7381365;19;20132;-67
2022/12/26 12:24:07;;;;;;;0.00;0.00;;;;;;;;;;7381932;19;20611;-67
2022/12/26 12:26:38;;;;;;;0.10;0.10;;;;;;;;;;7380387;19;20153;-67
2022/12/26 12:29:25;;;;;;;0.10;0.10;;;;;;;;;;7381970;19;20599;-68
2022/12/26 12:32:06;;;;;;;0.10;0.10;;;;;;;;;;7381014;19;20726;-68
2022/12/26 12:34:43;;;;;;;0.10;0.10;;;;;;;;;;7379717;19;20164;-68
2022/12/26 12:37:16;;;;;;;0.00;0.00;;;;;;;;;;7379433;19;20657;-67
2022/12/26 12:39:54;;;;;;;0.00;0.00;;;;;;;;;;7382362;19;20712;-67
2022/12/26 12:42:29;;;;;;;0.00;0.00;;;;;;;;;;7379553;19;20292;-68
2022/12/26 12:45:07;;;;;;;0.00;0.00;;;;;;;;;;7380940;19;20648;-68
2022/12/26 12:47:43;;;;;;;0.00;0.00;;;;;;;;;;7379879;19;20125;-68
2022/12/26 12:50:18;;;;;;;0.00;0.00;;;;;;;;;;7381051;19;20641;-68
2022/12/26 12:52:50;;;;;;;0.00;0.00;;;;;;;;;;7381012;19;20640;-68
2022/12/26 12:55:40;;;;;;;0.10;0.10;;;;;;;;;;7377385;19;20193;-68
2022/12/26 12:58:12;;;;;;;0.10;0.10;;;;;;;;;;7379852;19;20159;-67
2022/12/26 13:00:44;;;;;;;0.00;0.00;;;;;;;;;;7379040;19;20192;-68
2022/12/26 13:03:23;;;;;;;0.00;0.00;;;;;;;;;;7382300;19;20532;-68
2022/12/26 13:05:57;;;;;;;0.00;0.00;;;;;;;;;;7378855;19;20187;-67
2022/12/26 13:08:31;;;;;;;0.00;0.00;;;;;;;;;;7379485;19;20634;-67
2022/12/26 13:11:04;;;;;;;0.00;0.00;;;;;;;;;;7379639;19;20157;-67
2022/12/26 13:13:36;;;;;;;0.00;0.00;;;;;;;;;;7379405;19;20157;-67
2022/12/26 13:16:07;;;;;;;0.00;0.00;;;;;;;;;;7378126;19;20184;-67
2022/12/26 13:18:41;;;;;;;0.00;0.00;;;;;;;;;;7381156;19;20196;-68
2022/12/26 13:21:12;;;;;;;0.00;0.00;;;;;;;;;;7378902;19;20160;-67
2022/12/26 13:26:29;;;;;;;0.00;0.00;;;;;;;;;;7378712;19;20156;-67
2022/12/26 13:29:02;;;;;;;0.00;0.00;;;;;;;;;;7380979;19;20162;-68
2022/12/26 13:31:34;;;;;;;0.00;0.00;;;;;;;;;;7379356;19;20152;-67
2022/12/26 13:34:07;;;;;;;0.10;0.10;;;;;;;;;;7386006;19;20187;-67
2022/12/26 13:36:37;;;;;;;0.00;0.00;;;;;;;;;;7383992;19;20179;-67
2022/12/26 13:39:18;;;;;;;0.00;0.00;;;;;;;;;;7387594;19;20132;-67
2022/12/26 13:44:31;;;;;;;0.00;0.00;;;;;;;;;;7386079;19;20770;-67
2022/12/26 13:47:01;;;;;;;0.00;0.00;;;;;;;;;;7382972;19;20226;-67
2022/12/26 13:49:35;;;;;;;0.00;0.00;;;;;;;;;;7385404;19;20226;-67
2022/12/26 13:52:19;;;;;;;0.00;0.00;;;;;;;;;;7387696;19;20145;-67
2022/12/26 13:55:02;;;;;;;0.00;0.00;;;;;;;;;;7384682;19;20156;-67
2022/12/26 13:57:40;;;;;;;0.00;0.00;;;;;;;;;;7385625;19;20152;-67
2022/12/26 14:00:20;;;;;;;0.00;0.00;;;;;;;;;;7384439;19;20669;-67
2022/12/26 14:03:11;;;;;;;0.00;0.00;;;;;;;;;;7387267;19;20721;-67
2022/12/26 14:05:46;;;;;;;0.00;0.00;;;;;;;;;;7382110;19;20764;-67
2022/12/26 14:08:21;;;;;;;0.00;0.00;;;;;;;;;;7381574;19;20184;-67
2022/12/26 14:10:57;;;;;;;0.00;0.00;;;;;;;;;;7383965;19;20177;-67
2022/12/26 14:13:35;;;;;;;0.00;0.00;;;;;;;;;;7384268;19;20160;-67
2022/12/26 14:16:07;;;;;;;0.10;0.10;;;;;;;;;;7382661;19;20176;-67
2022/12/26 14:18:41;;;;;;;0.00;0.00;;;;;;;;;;7386573;19;20705;-67
2022/12/26 14:21:31;;;;;;;0.00;0.00;;;;;;;;;;7384873;19;20646;-67
2022/12/26 14:24:05;;;;;;;0.00;0.00;;;;;;;;;;7385181;19;20152;-67
2022/12/26 14:26:41;;;;;;;0.07;0.07;;;;;;;;;;7383256;19;20737;-67
2022/12/26 14:29:15;;;;;;;0.00;0.00;;;;;;;;;;7385661;19;20603;-67
2022/12/26 14:31:48;;;;;;;0.00;0.00;;;;;;;;;;7384263;19;20153;-67
2022/12/26 14:34:23;;;;;;;0.10;0.10;;;;;;;;;;7385035;19;20153;-67
2022/12/26 14:36:56;;;;;;;0.00;0.00;;;;;;;;;;7382843;19;20622;-67
2022/12/26 14:39:30;;;;;;;0.00;0.00;;;;;;;;;;7383109;19;20149;-67
2022/12/26 14:44:57;;;;;;;0.10;0.10;;;;;;;;;;7380710;19;20649;-68
2022/12/26 14:47:37;;;;;;;0.10;0.10;;;;;;;;;;7370406;19;20619;-67
2022/12/26 14:50:21;;;;;;;0.00;0.00;;;;;;;;;;7382344;19;20587;-67
2022/12/26 14:52:50;;;;;;;0.00;0.00;;;;;;;;;;7383200;19;20611;-67
2022/12/26 14:55:34;;;;;;;0.07;0.07;;;;;;;;;;7377992;19;20704;-67
2022/12/26 14:58:21;;;;;;;0.10;0.10;;;;;;;;;;7379684;19;20156;-68
2022/12/26 15:00:50;;;;;;;0.00;0.00;;;;;;;;;;7379814;19;20773;-67
2022/12/26 15:03:30;;;;;;;0.07;0.07;;;;;;;;;;7383908;19;20673;-67
2022/12/26 15:06:04;;;;;;;0.07;0.07;;;;;;;;;;7382063;19;20675;-68
2022/12/26 15:08:42;;;;;;;0.00;0.00;;;;;;;;;;7380874;19;20610;-68
2022/12/26 15:11:29;;;;;;;0.00;0.00;;;;;;;;;;7382300;19;20753;-68
2022/12/26 15:14:15;;;;;;;0.07;0.07;;;;;;;;;;7382265;19;20166;-68
2022/12/26 15:16:52;;;;;;;0.10;0.10;;;;;;;;;;7382809;19;20652;-68
2022/12/26 15:19:35;;;;;;;0.00;0.00;;;;;;;;;;7384247;19;20637;-67
2022/12/26 15:22:27;;;;;;;0.10;0.10;;;;;;;;;;7384972;19;20595;-68
2022/12/26 15:25:10;;;;;;;0.10;0.10;;;;;;;;;;7382210;19;20603;-68
2022/12/26 15:28:01;;;;;;;0.10;0.10;;;;;;;;;;7367026;19;20638;-68
2022/12/26 15:30:40;;;;;;;0.10;0.10;;;;;;;;;;7376380;19;20631;-68
2022/12/26 15:33:13;;;;;;;0.00;0.00;;;;;;;;;;7370791;19;20741;-68
2022/12/26 15:35:49;;;;;;;0.10;0.10;;;;;;;;;;7379977;19;20752;-67
2022/12/26 15:38:23;;;;;;;0.00;0.00;;;;;;;;;;7380465;19;20635;-68
2022/12/26 15:40:57;;;;;;;0.00;0.00;;;;;;;;;;7372455;19;20704;-67
2022/12/26 15:43:37;;;;;;;0.10;0.10;;;;;;;;;;7379311;19;20725;-68
2022/12/26 15:46:13;;;;;;;0.10;0.10;;;;;;;;;;7377492;19;20639;-67
2022/12/26 15:48:51;;;;;;;0.07;0.07;;;;;;;;;;7375581;19;20643;-67
2022/12/26 15:51:21;;;;;;;0.00;0.00;;;;;;;;;;7386056;19;20642;-67
2022/12/26 15:53:59;;;;;;;0.00;0.00;;;;;;;;;;7385888;19;20587;-68
2022/12/26 15:56:38;;;;;;;0.00;0.00;;;;;;;;;;7378078;19;20640;-68
2022/12/26 15:59:15;;;;;;;0.10;0.10;;;;;;;;;;7378162;19;20687;-68
2022/12/26 16:01:51;;;;;;;0.00;0.00;;;;;;;;;;7381950;19;20598;-68
2022/12/26 16:04:27;;;;;;;0.03;0.03;;;;;;;;;;7378734;19;20668;-68
2022/12/26 16:07:05;;;;;;;0.10;0.10;;;;;;;;;;7379553;19;20626;-68
2022/12/26 16:09:39;;;;;;;0.10;0.10;;;;;;;;;;7380650;19;20599;-68
2022/12/26 16:12:20;;;;;;;0.00;0.00;;;;;;;;;;7377012;19;20614;-68
2022/12/26 16:14:49;;;;;;;0.00;0.00;;;;;;;;;;7378331;19;20627;-68
2022/12/26 16:17:23;;;;;;;0.00;0.00;;;;;;;;;;7378874;19;20633;-67
2022/12/26 16:19:53;;;;;;;0.00;0.00;;;;;;;;;;7376987;19;20591;-66
2022/12/26 16:25:09;;;;;;;0.00;0.00;;;;;;;;;;7381317;19;20632;-68
2022/12/26 16:27:40;;;;;;;0.00;0.00;;;;;;;;;;7380737;19;20611;-70
2022/12/26 16:30:10;;;;;;;0.10;0.10;;;;;;;;;;7378140;19;20696;-70
2022/12/26 16:32:43;;;;;;;0.00;0.00;;;;;;;;;;7381527;19;20656;-71
2022/12/26 16:35:19;;;;;;;0.00;0.00;;;;;;;;;;7377488;19;20600;-70
2022/12/26 16:37:48;;;;;;;0.10;0.10;;;;;;;;;;7378514;19;20611;-71
2022/12/26 16:40:20;;;;;;;0.00;0.00;;;;;;;;;;7377703;19;20685;-71
2022/12/26 16:42:57;;;;;;;0.00;0.00;;;;;;;;;;7378305;19;20796;-71
2022/12/26 16:45:26;;;;;;;0.00;0.00;;;;;;;;;;7375447;19;20982;-71
2022/12/26 16:47:58;;;;;;;0.10;0.10;;;;;;;;;;7375530;19;20700;-71
2022/12/26 16:50:28;;;;;;;0.00;0.00;;;;;;;;;;7371784;19;20888;-71
2022/12/26 16:53:03;;;;;;;0.10;0.10;;;;;;;;;;7384285;19;20142;-71
2022/12/26 16:55:37;;;;;;;0.10;0.10;;;;;;;;;;7384673;19;20699;-71
2022/12/26 16:58:13;;;;;;;0.07;0.07;;;;;;;;;;7387258;19;20721;-71
2022/12/26 17:00:42;;;;;;;0.00;0.00;;;;;;;;;;7377287;19;20804;-71
2022/12/26 17:03:20;;;;;;;0.00;0.00;;;;;;;;;;7385267;19;20156;-71
2022/12/26 17:05:49;;;;;;;0.00;0.00;;;;;;;;;;7377762;19;20164;-71
2022/12/26 17:08:20;;;;;;;0.10;0.10;;;;;;;;;;7379603;19;20723;-71
2022/12/26 17:10:50;;;;;;;0.10;0.10;;;;;;;;;;7385761;19;20163;-72
2022/12/26 17:13:21;;;;;;;0.10;0.10;;;;;;;;;;7388179;19;21502;-71
2022/12/26 17:15:52;;;;;;;0.00;0.00;;;;;;;;;;7380180;19;20703;-70
2022/12/26 17:18:39;;;;;;;0.00;0.00;;;;;;;;;;7383365;19;20675;-69
2022/12/26 17:21:23;;;;;;;0.10;0.10;;;;;;;;;;7392947;19;20710;-69
2022/12/26 17:24:07;;;;;;;0.10;0.10;;;;;;;;;;7383048;19;20771;-68
2022/12/26 17:26:38;;;;;;;0.07;0.07;;;;;;;;;;7377657;19;20658;-69
2022/12/26 17:29:07;;;;;;;0.10;0.10;;;;;;;;;;7382438;19;20729;-68
2022/12/26 17:31:37;;;;;;;0.00;0.00;;;;;;;;;;7386385;19;20598;-68
2022/12/26 17:34:15;;;;;;;0.00;0.00;;;;;;;;;;7384212;19;20618;-68
2022/12/26 17:36:44;;;;;;;0.00;0.00;;;;;;;;;;7380460;19;20661;-68